Bowman Field Louisville US
ICAO: KLOU
IATA: LOU
Category: Medium
Scheduled Services: No

Elevation: 546 ft
TransAlt. 18000 ft.

Airport Communications:
LOUISVILLE APP/DEP:123.675
ATIS:112.2
CLNC DEL:118.9
CTAF:119.5
GND:121.8
LOUISVILLE RDO:122.2
TWR:119.5
UNICOM:122.95

KLOU Zoom In..

Runways:

(A) RW 06 length 4358 ft width 75 ft
---- / hdg 64

(B) RW 15 length 3580 ft width 75 ft
---- / hdg 147

(C) RW 24 length 4358 ft width 75 ft
---- / hdg 244

(D) RW 33 length 3580 ft width 75 ft
---- / hdg 327

Location; KLOU
Day. 16 / Time. 17.53 Zulu
* Altimeter: 29.98
* Temperature: 26° c. 78.8°f.
* Wind from: 240° Speed 05 kn.
Dewpoint: 24° c.
Visibility: 10 Statute Miles.
Clouds: Overcast 1700 ft.

KLOU 161753Z 24005KT 10SM OVC017 26/24 A2998 RMK AO2 SLP147 60034 T02560244 10261 20239 58005


Wind From 240°
Speed 05 kn.

 
 
jpsmedia.com for Web Design worldairports.se 2018   terms of use